Aviation Digital Data Service (ADDS)

Output produced by METARs form (0506 UTC 21 September 2017)
found at http://www.aviationweather.gov/adds/metars/
 
KMSS 210453Z AUTO 05004KT 6SM BR CLR 17/17 A3007 RMK AO2 SLP183 T01670167 402610139
KMSS 210401Z AUTO 00000KT 7SM CLR 17/17 A3007 RMK AO2 T01670167
KMSS 210353Z AUTO 00000KT 2SM BR CLR 17/17 A3006 RMK AO2 SLP180 T01670167
KMSS 210253Z AUTO 00000KT 10SM CLR 16/16 A3006 RMK AO2 SLP180 T01610161 51010
KMSS 202340Z 2100/2124 03004KT P6SM SCT250